Time;durP1;ratioP1;P1;durP2;ratioP2;P2;SDS_P1;SDS_P2;PMS_P1;PMS_P2;Temp;Humidity;BMP_temperature;BMP_pressure;BME280_temperature;BME280_humidity;BME280_pressure;Samples;Min_cycle;Max_cycle;Signal;HPM_P1;HPM_P2
2023/04/05 00:01:55;;;;;;;4.43;2.50;;;21.70;63.40;;;;;;5010616;28;20254;-61
2023/04/05 00:04:22;;;;;;;2.33;2.13;;;21.70;63.40;;;;;;5010970;28;20620;-61
2023/04/05 00:06:51;;;;;;;4.15;2.90;;;21.70;63.40;;;;;;5015347;28;20288;-61
2023/04/05 00:09:19;;;;;;;2.67;2.47;;;21.70;63.40;;;;;;5011830;28;20691;-61
2023/04/05 00:11:46;;;;;;;3.05;2.85;;;21.60;63.30;;;;;;5024952;28;20228;-61
2023/04/05 00:14:14;;;;;;;2.60;2.40;;;21.60;63.30;;;;;;5014027;28;20196;-61
2023/04/05 00:16:41;;;;;;;2.80;2.60;;;21.60;63.30;;;;;;5015558;28;20676;-61
2023/04/05 00:19:09;;;;;;;2.80;2.60;;;21.60;63.30;;;;;;5012087;28;20188;-61
2023/04/05 00:21:38;;;;;;;3.20;2.75;;;21.60;63.30;;;;;;5014433;28;20550;-62
2023/04/05 00:24:06;;;;;;;3.25;2.95;;;21.60;63.40;;;;;;5014747;28;20252;-61
2023/04/05 00:26:33;;;;;;;2.58;1.90;;;21.60;63.30;;;;;;5009108;28;20208;-61
2023/04/05 00:29:01;;;;;;;4.72;3.22;;;21.60;63.30;;;;;;5012383;28;20571;-61
2023/04/05 00:31:31;;;;;;;3.55;2.75;;;21.60;63.40;;;;;;5015488;28;20193;-61
2023/04/05 00:33:59;;;;;;;2.78;2.58;;;21.60;63.30;;;;;;5014078;28;20196;-61
2023/04/05 00:36:26;;;;;;;3.22;2.90;;;21.50;63.20;;;;;;5013860;28;20192;-62
2023/04/05 00:38:59;;;;;;;2.70;2.50;;;21.50;63.30;;;;;;5020983;28;20209;-61
2023/04/05 00:41:25;;;;;;;2.92;2.30;;;21.50;63.30;;;;;;5022945;28;20291;-61
2023/04/05 00:43:52;;;;;;;2.78;2.58;;;21.60;63.40;;;;;;5023552;28;20227;-61
2023/04/05 00:46:22;;;;;;;3.65;2.80;;;21.50;63.30;;;;;;5023125;28;20254;-61
2023/04/05 00:49:00;;;;;;;2.53;2.30;;;21.50;63.30;;;;;;5017540;28;20254;-61
2023/04/05 00:51:28;;;;;;;2.80;2.60;;;21.50;63.30;;;;;;5026584;28;20210;-61
2023/04/05 00:53:55;;;;;;;3.03;2.83;;;21.50;63.30;;;;;;5027953;28;20664;-61
2023/04/05 00:56:23;;;;;;;3.65;2.35;;;21.50;63.30;;;;;;5032263;28;20726;-61
2023/04/05 00:58:50;;;;;;;2.70;2.50;;;21.50;63.30;;;;;;5018089;28;20676;-61
2023/04/05 01:01:19;;;;;;;2.70;2.50;;;21.50;63.30;;;;;;5033787;28;20656;-61
2023/04/05 01:03:52;;;;;;;2.70;2.45;;;21.50;63.30;;;;;;5020731;28;20192;-61
2023/04/05 01:06:33;;;;;;;2.60;2.40;;;21.50;63.30;;;;;;5013129;28;20196;-61
2023/04/05 01:09:04;;;;;;;2.70;2.50;;;21.50;63.30;;;;;;5017807;28;20196;-61
2023/04/05 01:11:33;;;;;;;2.67;2.47;;;21.50;63.30;;;;;;5029288;28;20726;-61
2023/04/05 01:14:00;;;;;;;2.38;2.17;;;21.40;63.20;;;;;;5023094;28;20546;-61
2023/04/05 01:16:28;;;;;;;2.58;2.38;;;21.40;63.20;;;;;;5021045;28;20196;-61
2023/04/05 01:18:56;;;;;;;2.63;2.40;;;21.40;63.20;;;;;;5021099;28;20200;-61
2023/04/05 01:21:57;;;;;;;2.67;2.35;;;21.40;63.20;;;;;;5014854;28;20518;-62
2023/04/05 01:24:37;;;;;;;3.30;2.58;;;21.40;63.20;;;;;;5017956;28;20256;-60
2023/04/05 01:27:08;;;;;;;2.38;2.17;;;21.40;64.10;;;;;;5017990;28;20299;-60
2023/04/05 01:30:03;;;;;;;2.67;2.45;;;21.40;64.00;;;;;;5019528;28;20303;-60
2023/04/05 01:32:46;;;;;;;2.53;2.30;;;21.40;63.20;;;;;;5016505;28;20207;-60
2023/04/05 01:35:18;;;;;;;2.70;2.50;;;21.40;63.10;;;;;;5021319;28;20246;-60
2023/04/05 01:37:49;;;;;;;2.85;2.55;;;21.40;63.10;;;;;;5015244;28;20507;-60
2023/04/05 01:40:16;;;;;;;3.00;2.42;;;21.40;63.10;;;;;;5019575;28;20644;-62
2023/04/05 01:42:44;;;;;;;2.50;2.17;;;21.40;63.20;;;;;;5015644;28;20629;-62
2023/04/05 01:45:12;;;;;;;2.95;2.60;;;21.40;63.20;;;;;;5026067;28;20312;-62
2023/04/05 01:47:39;;;;;;;3.03;2.83;;;21.40;63.20;;;;;;5022527;28;20605;-62
2023/04/05 01:50:07;;;;;;;2.30;2.10;;;21.40;63.20;;;;;;5026022;28;20201;-62
2023/04/05 01:52:34;;;;;;;2.63;2.28;;;21.40;63.20;;;;;;5020365;28;20193;-62
2023/04/05 01:55:02;;;;;;;2.45;2.25;;;21.40;63.20;;;;;;5025156;28;20196;-62
2023/04/05 01:57:28;;;;;;;3.30;2.35;;;21.30;63.10;;;;;;5027425;28;20213;-60
2023/04/05 01:59:55;;;;;;;3.20;2.60;;;21.30;63.00;;;;;;5021259;28;20216;-61
2023/04/05 02:02:23;;;;;;;2.17;1.77;;;21.40;63.20;;;;;;5021979;28;20204;-62
2023/04/05 02:04:50;;;;;;;2.92;2.63;;;21.30;63.10;;;;;;5025204;28;20224;-61
2023/04/05 02:07:16;;;;;;;2.40;2.20;;;21.40;63.20;;;;;;5018754;28;20644;-62
2023/04/05 02:09:43;;;;;;;2.45;2.25;;;21.30;63.10;;;;;;5014606;28;20251;-61
2023/04/05 02:12:12;;;;;;;2.53;2.33;;;21.30;63.10;;;;;;5018324;28;20204;-62
2023/04/05 02:14:41;;;;;;;2.42;2.22;;;21.30;63.20;;;;;;5017724;28;20212;-60
2023/04/05 02:17:07;;;;;;;2.40;2.10;;;21.30;63.20;;;;;;5017152;28;20201;-60
2023/04/05 02:19:39;;;;;;;2.92;2.67;;;21.30;63.10;;;;;;5015454;28;20197;-62
2023/04/05 02:22:06;;;;;;;2.40;2.20;;;21.30;63.10;;;;;;5014910;28;20221;-62
2023/04/05 02:24:33;;;;;;;2.30;2.10;;;21.30;63.10;;;;;;5011428;28;20617;-62
2023/04/05 02:27:01;;;;;;;1.88;1.73;;;21.30;63.10;;;;;;5020144;28;20303;-62
2023/04/05 02:29:28;;;;;;;2.35;2.10;;;21.30;63.10;;;;;;5022697;28;20596;-59
2023/04/05 02:31:55;;;;;;;2.65;2.45;;;21.30;63.10;;;;;;5015403;28;20209;-61
2023/04/05 02:34:22;;;;;;;2.20;2.00;;;21.30;63.10;;;;;;5013405;28;20251;-62
2023/04/05 02:36:51;;;;;;;2.50;2.22;;;21.30;63.10;;;;;;5013176;28;20700;-62
2023/04/05 02:39:18;;;;;;;2.25;2.05;;;21.30;63.10;;;;;;5014629;28;20209;-62
2023/04/05 02:41:44;;;;;;;2.90;2.70;;;21.30;63.10;;;;;;5016130;28;20319;-62
2023/04/05 02:44:11;;;;;;;1.90;1.80;;;21.30;63.10;;;;;;5019593;28;20204;-62
2023/04/05 02:46:38;;;;;;;2.80;2.50;;;21.30;63.10;;;;;;5024785;28;20208;-61
2023/04/05 02:49:05;;;;;;;2.40;2.20;;;21.30;63.10;;;;;;5015416;28;20189;-61
2023/04/05 02:51:33;;;;;;;1.95;1.75;;;21.30;63.10;;;;;;5019229;28;20192;-61
2023/04/05 02:54:02;;;;;;;1.88;1.77;;;21.30;63.10;;;;;;5025896;28;20198;-62
2023/04/05 02:56:29;;;;;;;2.38;2.17;;;21.30;63.10;;;;;;5012381;28;20212;-62
2023/04/05 02:58:55;;;;;;;2.20;2.00;;;21.30;63.10;;;;;;5016212;28;20665;-60
2023/04/05 03:01:22;;;;;;;2.80;2.33;;;21.20;63.00;;;;;;5013071;28;20201;-60
2023/04/05 03:03:49;;;;;;;2.38;2.17;;;21.20;63.00;;;;;;5019904;28;20204;-59
2023/04/05 03:06:15;;;;;;;3.85;2.38;;;21.20;63.00;;;;;;5016163;28;20279;-62
2023/04/05 03:08:47;;;;;;;2.40;2.10;;;21.20;63.00;;;;;;5017388;28;20267;-62
2023/04/05 03:11:15;;;;;;;2.45;2.25;;;21.20;63.00;;;;;;5017589;28;20200;-60
2023/04/05 03:13:42;;;;;;;2.15;1.95;;;21.20;63.10;;;;;;5016758;28;20270;-62
2023/04/05 03:16:08;;;;;;;2.70;2.20;;;21.20;63.00;;;;;;5014283;28;20204;-61
2023/04/05 03:18:35;;;;;;;2.17;2.00;;;21.20;63.00;;;;;;5011098;28;20205;-62
2023/04/05 03:21:03;;;;;;;2.20;2.00;;;21.20;63.00;;;;;;5019714;28;20564;-61
2023/04/05 03:23:32;;;;;;;2.03;1.73;;;21.20;63.00;;;;;;5017562;28;20217;-62
2023/04/05 03:25:59;;;;;;;2.10;1.90;;;21.20;63.10;;;;;;5015810;28;20291;-62
2023/04/05 03:28:28;;;;;;;2.40;2.20;;;21.20;63.10;;;;;;5020382;28;20203;-61
2023/04/05 03:30:55;;;;;;;2.35;2.10;;;21.20;63.00;;;;;;5019642;28;20738;-62
2023/04/05 03:33:22;;;;;;;2.28;1.95;;;21.20;63.00;;;;;;5023690;28;20197;-62
2023/04/05 03:35:48;;;;;;;1.80;1.70;;;21.20;62.90;;;;;;5017061;28;20193;-62
2023/04/05 03:38:16;;;;;;;1.75;1.65;;;21.20;62.90;;;;;;5012048;28;20205;-61
2023/04/05 03:40:43;;;;;;;1.63;1.52;;;21.20;62.90;;;;;;5015395;28;20279;-62
2023/04/05 03:43:10;;;;;;;2.35;2.15;;;21.20;62.90;;;;;;5021974;28;20211;-62
2023/04/05 03:45:38;;;;;;;2.15;1.95;;;21.20;62.90;;;;;;5017715;28;20307;-62
2023/04/05 03:48:05;;;;;;;4.38;2.35;;;21.20;62.90;;;;;;5016669;28;20258;-62
2023/04/05 03:50:34;;;;;;;2.40;2.20;;;21.20;62.90;;;;;;5021992;28;20196;-62
2023/04/05 03:53:00;;;;;;;1.80;1.70;;;21.20;63.00;;;;;;5011757;28;20468;-61
2023/04/05 03:55:27;;;;;;;2.38;1.85;;;21.20;63.00;;;;;;5009712;28;20699;-62
2023/04/05 03:57:54;;;;;;;2.10;1.90;;;21.10;62.90;;;;;;5010648;28;20616;-62
2023/04/05 04:00:23;;;;;;;2.10;1.90;;;21.20;62.90;;;;;;5010894;28;20653;-62
2023/04/05 04:02:52;;;;;;;1.90;1.73;;;21.20;62.90;;;;;;5024279;28;20196;-61
2023/04/05 04:05:19;;;;;;;2.03;1.63;;;21.20;62.90;;;;;;5020282;28;20312;-62
2023/04/05 04:07:47;;;;;;;1.80;1.70;;;21.10;62.80;;;;;;5014108;28;20215;-62
2023/04/05 04:10:17;;;;;;;2.35;2.15;;;21.10;62.90;;;;;;5018536;28;20201;-61
2023/04/05 04:12:44;;;;;;;1.65;1.55;;;21.10;62.90;;;;;;5020039;28;20284;-61
2023/04/05 04:15:11;;;;;;;1.88;1.60;;;21.20;62.90;;;;;;5012895;28;20201;-62
2023/04/05 04:17:38;;;;;;;1.60;1.50;;;21.20;62.90;;;;;;5014610;28;20192;-62
2023/04/05 04:20:09;;;;;;;1.67;1.58;;;21.10;62.80;;;;;;5022449;28;20194;-62
2023/04/05 04:22:37;;;;;;;2.00;1.80;;;21.10;62.80;;;;;;5014967;28;20263;-62
2023/04/05 04:25:09;;;;;;;2.17;2.03;;;21.10;62.80;;;;;;5022189;28;20320;-62
2023/04/05 04:27:39;;;;;;;2.10;2.00;;;21.10;62.80;;;;;;5024145;28;20204;-61
2023/04/05 04:30:09;;;;;;;1.75;1.65;;;21.10;62.70;;;;;;5014103;28;20415;-62
2023/04/05 04:32:52;;;;;;;1.95;1.85;;;21.10;62.70;;;;;;5017203;28;20200;-62
2023/04/05 04:35:23;;;;;;;1.70;1.60;;;21.10;62.70;;;;;;5016835;28;20565;-62
2023/04/05 04:37:56;;;;;;;2.58;1.98;;;21.10;62.80;;;;;;5012998;28;20212;-61
2023/04/05 04:40:24;;;;;;;2.00;1.55;;;21.10;63.50;;;;;;5011458;28;20197;-62
2023/04/05 04:42:51;;;;;;;2.25;1.95;;;21.10;62.70;;;;;;5016563;28;20568;-62
2023/04/05 04:45:19;;;;;;;2.50;2.17;;;21.10;62.70;;;;;;5014888;28;20227;-62
2023/04/05 04:47:48;;;;;;;2.65;1.85;;;21.10;62.70;;;;;;5020769;28;20928;-61
2023/04/05 04:50:18;;;;;;;2.00;1.35;;;21.10;62.70;;;;;;5013925;28;20203;-61
2023/04/05 04:52:47;;;;;;;1.88;1.60;;;21.10;62.80;;;;;;5012019;28;20196;-61
2023/04/05 04:55:14;;;;;;;1.58;1.48;;;21.10;62.70;;;;;;5012154;28;20258;-62
2023/04/05 04:57:41;;;;;;;1.95;1.85;;;21.10;62.60;;;;;;5015940;28;20274;-61
2023/04/05 05:00:11;;;;;;;2.08;1.88;;;21.10;62.60;;;;;;5011472;28;20213;-62
2023/04/05 05:02:38;;;;;;;1.60;1.48;;;21.10;62.60;;;;;;5017033;28;20560;-62
2023/04/05 05:05:05;;;;;;;2.67;1.67;;;21.10;62.60;;;;;;5009331;28;20197;-62
2023/04/05 05:07:32;;;;;;;2.05;1.88;;;21.10;62.80;;;;;;5010000;28;20189;-62
2023/04/05 05:10:00;;;;;;;1.70;1.60;;;21.10;62.80;;;;;;5017709;28;20201;-62
2023/04/05 05:12:27;;;;;;;1.70;1.60;;;21.10;62.80;;;;;;5014752;28;20656;-62
2023/04/05 05:14:53;;;;;;;2.10;1.80;;;21.10;62.70;;;;;;5023268;28;20200;-61
2023/04/05 05:17:20;;;;;;;2.45;1.80;;;21.10;62.70;;;;;;5014976;28;20209;-62
2023/04/05 05:19:47;;;;;;;1.80;1.70;;;21.10;62.70;;;;;;5021593;28;20204;-62
2023/04/05 05:22:13;;;;;;;1.50;1.40;;;21.10;62.70;;;;;;5011662;28;20221;-61
2023/04/05 05:24:41;;;;;;;1.50;1.40;;;21.10;62.70;;;;;;5014303;28;20200;-62
2023/04/05 05:27:09;;;;;;;1.42;1.33;;;21.10;62.70;;;;;;5011062;28;20219;-62
2023/04/05 05:29:36;;;;;;;1.73;1.63;;;21.10;62.70;;;;;;5016348;28;20576;-60
2023/04/05 05:32:02;;;;;;;1.60;1.50;;;21.10;62.70;;;;;;5020079;28;20676;-60
2023/04/05 05:34:29;;;;;;;2.13;1.40;;;21.10;62.70;;;;;;5021457;28;20200;-62
2023/04/05 05:36:56;;;;;;;2.17;1.98;;;21.10;62.60;;;;;;5018757;28;20205;-62
2023/04/05 05:39:23;;;;;;;2.08;1.80;;;21.10;62.60;;;;;;5023167;28;20254;-61
2023/04/05 05:41:50;;;;;;;1.55;1.45;;;21.10;62.70;;;;;;5017960;28;20239;-62
2023/04/05 05:44:18;;;;;;;2.17;1.92;;;21.10;62.60;;;;;;5018584;28;20204;-62
2023/04/05 05:46:45;;;;;;;2.60;1.40;;;21.10;62.50;;;;;;5020679;28;20224;-62
2023/04/05 05:49:11;;;;;;;1.40;1.20;;;21.10;62.50;;;;;;5022332;28;20291;-62
2023/04/05 05:51:38;;;;;;;2.25;1.95;;;21.10;62.50;;;;;;5015104;28;20212;-62
2023/04/05 05:54:05;;;;;;;2.85;1.40;;;21.10;62.50;;;;;;5020402;28;20197;-61
2023/04/05 05:56:31;;;;;;;2.00;1.80;;;21.10;62.60;;;;;;5018656;28;20255;-61
2023/04/05 05:58:58;;;;;;;1.50;1.40;;;21.10;62.60;;;;;;5015043;28;20197;-62
2023/04/05 06:01:27;;;;;;;1.70;1.60;;;21.10;62.60;;;;;;5017148;28;20287;-62
2023/04/05 06:03:54;;;;;;;1.60;1.33;;;21.10;62.60;;;;;;5014103;28;20212;-62
2023/04/05 06:06:22;;;;;;;1.60;1.48;;;21.10;62.60;;;;;;5012259;28;20270;-61
2023/04/05 06:08:50;;;;;;;1.42;1.33;;;21.10;62.60;;;;;;5018652;28;20295;-62
2023/04/05 06:11:18;;;;;;;1.70;1.55;;;21.10;63.40;;;;;;5016143;28;20687;-62
2023/04/05 06:13:44;;;;;;;1.70;1.60;;;21.10;62.60;;;;;;5014849;28;20201;-61
2023/04/05 06:16:11;;;;;;;1.45;1.35;;;21.10;62.60;;;;;;5029433;28;20200;-61
2023/04/05 06:18:39;;;;;;;1.70;1.60;;;21.20;62.60;;;;;;5019944;28;20200;-62
2023/04/05 06:21:06;;;;;;;1.60;1.50;;;21.20;62.60;;;;;;5015896;28;20240;-61
2023/04/05 06:23:32;;;;;;;1.60;1.50;;;21.20;62.60;;;;;;5018073;28;20220;-62
2023/04/05 06:25:59;;;;;;;1.70;1.60;;;21.20;62.60;;;;;;5016008;28;20715;-61
2023/04/05 06:28:26;;;;;;;1.20;1.10;;;21.20;62.50;;;;;;5018317;28;20278;-61
2023/04/05 06:30:53;;;;;;;1.65;1.55;;;21.20;62.60;;;;;;5012280;28;20197;-61
2023/04/05 06:33:20;;;;;;;1.75;1.65;;;21.20;62.50;;;;;;5017791;28;20230;-61
2023/04/05 06:35:48;;;;;;;1.70;1.50;;;21.30;62.60;;;;;;5009939;28;20217;-61
2023/04/05 06:38:17;;;;;;;2.05;1.60;;;21.30;62.60;;;;;;5014164;28;20193;-62
2023/04/05 06:40:44;;;;;;;1.67;1.58;;;21.30;62.60;;;;;;5020309;28;20193;-61
2023/04/05 06:43:10;;;;;;;1.38;1.23;;;21.30;62.60;;;;;;5017981;28;20259;-62
2023/04/05 06:45:37;;;;;;;1.50;1.40;;;21.30;62.60;;;;;;5015452;28;20279;-61
2023/04/05 06:48:04;;;;;;;1.48;1.38;;;21.30;62.60;;;;;;5019833;28;20251;-62
2023/04/05 06:50:33;;;;;;;2.65;1.75;;;21.30;62.60;;;;;;5019959;28;20208;-62
2023/04/05 06:53:01;;;;;;;1.60;1.50;;;21.30;62.60;;;;;;5014435;28;20550;-62
2023/04/05 06:55:28;;;;;;;1.70;1.60;;;21.30;62.60;;;;;;5012260;28;20999;-62
2023/04/05 06:57:55;;;;;;;1.50;1.40;;;21.30;62.60;;;;;;5017636;28;20205;-62
2023/04/05 07:00:24;;;;;;;1.40;1.30;;;21.30;62.60;;;;;;5015328;28;20627;-62
2023/04/05 07:02:53;;;;;;;1.50;1.30;;;21.30;62.60;;;;;;5020957;28;20691;-62
2023/04/05 07:05:19;;;;;;;1.80;1.50;;;21.30;62.50;;;;;;5020095;28;20201;-61
2023/04/05 07:07:47;;;;;;;1.95;1.52;;;21.30;62.50;;;;;;5011255;28;20643;-61
2023/04/05 07:10:16;;;;;;;2.08;1.50;;;21.30;62.50;;;;;;5018576;28;20220;-59
2023/04/05 07:12:42;;;;;;;1.90;1.60;;;21.30;62.50;;;;;;5020562;28;20292;-62
2023/04/05 07:15:14;;;;;;;1.70;1.58;;;21.30;62.50;;;;;;5017576;28;20255;-62
2023/04/05 07:17:43;;;;;;;1.65;1.42;;;21.30;62.50;;;;;;5011987;28;20205;-60
2023/04/05 07:20:11;;;;;;;1.40;1.30;;;21.30;62.50;;;;;;5022803;28;21127;-62
2023/04/05 07:22:39;;;;;;;1.70;1.60;;;21.30;62.60;;;;;;5013012;28;20303;-61
2023/04/05 07:25:09;;;;;;;1.38;1.27;;;21.40;62.60;;;;;;5012826;28;20204;-60
2023/04/05 07:27:38;;;;;;;1.42;1.17;;;21.30;62.50;;;;;;5015023;28;20220;-60
2023/04/05 07:30:06;;;;;;;1.98;1.27;;;21.40;62.60;;;;;;5019210;28;20193;-62
2023/04/05 07:32:34;;;;;;;1.60;1.35;;;21.40;62.60;;;;;;5023557;28;20197;-60
2023/04/05 07:35:03;;;;;;;1.30;1.20;;;21.40;62.60;;;;;;5014499;28;20243;-62
2023/04/05 07:37:29;;;;;;;5.57;1.27;;;21.40;62.60;;;;;;5016045;28;20217;-62
2023/04/05 07:39:57;;;;;;;1.40;1.30;;;21.40;63.50;;;;;;5019155;28;20262;-62
2023/04/05 07:42:24;;;;;;;1.70;1.60;;;21.40;63.70;;;;;;5021257;28;20204;-62
2023/04/05 07:44:52;;;;;;;8.35;2.25;;;21.40;64.20;;;;;;5013792;28;20208;-61
2023/04/05 07:47:19;;;;;;;2.70;1.63;;;21.40;64.60;;;;;;5016109;28;20221;-61
2023/04/05 07:49:46;;;;;;;8.02;2.25;;;21.50;64.80;;;;;;5013644;28;20199;-61
2023/04/05 07:52:15;;;;;;;1.83;1.42;;;21.50;64.90;;;;;;5027624;28;21039;-61
2023/04/05 07:54:42;;;;;;;1.58;1.35;;;21.50;64.80;;;;;;5022624;28;20200;-61
2023/04/05 07:57:16;;;;;;;6.40;1.40;;;21.60;65.00;;;;;;5022370;28;20287;-61
2023/04/05 07:59:43;;;;;;;4.22;1.23;;;21.60;65.10;;;;;;5019698;28;20282;-61
2023/04/05 08:02:12;;;;;;;1.55;1.35;;;21.60;65.20;;;;;;5026446;28;20200;-62
2023/04/05 08:04:39;;;;;;;2.08;1.30;;;21.60;65.20;;;;;;5021339;28;20223;-61
2023/04/05 08:07:06;;;;;;;2.10;1.67;;;21.70;65.40;;;;;;5016849;28;20216;-61
2023/04/05 08:09:37;;;;;;;1.52;1.10;;;21.70;65.60;;;;;;5014476;28;20206;-53
2023/04/05 08:12:06;;;;;;;2.92;1.58;;;21.70;66.00;;;;;;5016513;28;20197;-59
2023/04/05 08:14:33;;;;;;;1.40;1.30;;;21.70;65.30;;;;;;5011771;28;20215;-57
2023/04/05 08:17:00;;;;;;;1.60;1.45;;;21.60;64.80;;;;;;5011277;28;20876;-54
2023/04/05 08:19:28;;;;;;;1.85;1.40;;;21.70;65.10;;;;;;5016145;28;20196;-55
2023/04/05 08:21:54;;;;;;;2.75;1.40;;;21.60;64.70;;;;;;5016004;28;20224;-55
2023/04/05 08:24:23;;;;;;;1.80;1.70;;;21.60;64.10;;;;;;5017220;28;20251;-57
2023/04/05 08:26:50;;;;;;;2.13;1.92;;;21.60;64.10;;;;;;5022366;28;20220;-54
2023/04/05 08:29:17;;;;;;;3.80;1.73;;;21.60;64.30;;;;;;5020515;28;20192;-59
2023/04/05 08:31:43;;;;;;;1.52;1.20;;;21.50;64.40;;;;;;5019417;28;20296;-60
2023/04/05 08:34:10;;;;;;;3.05;1.80;;;21.50;63.50;;;;;;5009588;28;20205;-55
2023/04/05 08:36:38;;;;;;;1.73;1.33;;;21.50;63.20;;;;;;5018547;28;20204;-53
2023/04/05 08:39:07;;;;;;;4.50;1.38;;;21.50;62.90;;;;;;5022123;28;20192;-55
2023/04/05 08:41:36;;;;;;;1.95;1.50;;;21.50;62.90;;;;;;5014749;28;20205;-57
2023/04/05 08:44:04;;;;;;;1.70;1.52;;;21.50;62.70;;;;;;5012295;28;20208;-53
2023/04/05 08:46:32;;;;;;;1.95;1.25;;;21.50;62.90;;;;;;5013058;28;20212;-52
2023/04/05 08:49:00;;;;;;;1.70;1.52;;;21.50;63.40;;;;;;5025235;28;20722;-52
2023/04/05 08:51:27;;;;;;;3.13;1.30;;;21.60;62.80;;;;;;5010827;28;20212;-59
2023/04/05 08:53:55;;;;;;;1.83;1.73;;;21.60;62.80;;;;;;5024061;28;20258;-56
2023/04/05 08:56:26;;;;;;;2.20;1.58;;;21.50;62.10;;;;;;5018476;28;20203;-54
2023/04/05 08:58:58;;;;;;;1.30;1.20;;;21.50;61.80;;;;;;5013582;28;20188;-55
2023/04/05 09:01:27;;;;;;;4.40;1.50;;;21.50;61.70;;;;;;5007529;28;20200;-56
2023/04/05 09:03:56;;;;;;;1.85;1.65;;;21.50;61.80;;;;;;5016172;28;20246;-56
2023/04/05 09:06:22;;;;;;;1.55;1.15;;;21.50;61.80;;;;;;5019446;28;20200;-56
2023/04/05 09:08:50;;;;;;;2.35;1.55;;;21.50;61.70;;;;;;5018676;28;20210;-52
2023/04/05 09:11:19;;;;;;;1.85;1.67;;;21.50;61.80;;;;;;5023476;28;20251;-53
2023/04/05 09:13:46;;;;;;;1.65;1.27;;;21.50;61.90;;;;;;5023353;28;20200;-54
2023/04/05 09:16:14;;;;;;;1.60;1.50;;;21.50;61.60;;;;;;5012252;28;20250;-55
2023/04/05 09:18:41;;;;;;;1.60;1.50;;;21.50;61.50;;;;;;5023853;28;20906;-52
2023/04/05 09:21:09;;;;;;;3.22;1.33;;;21.50;61.50;;;;;;5021675;28;20201;-58
2023/04/05 09:23:36;;;;;;;2.35;1.70;;;21.40;61.40;;;;;;5024948;28;20583;-56
2023/04/05 09:26:20;;;;;;;1.65;1.45;;;21.50;61.70;;;;;;5018666;28;20247;-53
2023/04/05 09:28:46;;;;;;;3.35;1.02;;;21.50;61.70;;;;;;5021880;28;20214;-58
2023/04/05 09:31:32;;;;;;;1.60;1.50;;;21.40;61.50;;;;;;5019931;28;20615;-59
2023/04/05 09:34:00;;;;;;;1.27;1.17;;;21.50;62.30;;;;;;5016112;28;20196;-61
2023/04/05 09:36:28;;;;;;;1.40;1.30;;;21.50;62.60;;;;;;5027313;28;20215;-61
2023/04/05 09:39:04;;;;;;;12.45;1.70;;;21.50;62.80;;;;;;5017121;28;20631;-62
2023/04/05 09:41:33;;;;;;;1.40;1.02;;;21.50;62.90;;;;;;5013396;28;20223;-55
2023/04/05 09:44:00;;;;;;;2.22;1.55;;;21.60;63.20;;;;;;5015242;28;20219;-60
2023/04/05 09:46:32;;;;;;;1.40;1.30;;;21.60;63.40;;;;;;5019390;28;20204;-50
2023/04/05 09:49:00;;;;;;;2.30;1.50;;;21.70;63.50;;;;;;5018635;28;20204;-48
2023/04/05 09:51:33;;;;;;;2.67;1.30;;;21.70;63.70;;;;;;5019185;28;20212;-51
2023/04/05 09:54:01;;;;;;;2.05;1.20;;;21.70;63.70;;;;;;5017040;28;20193;-50
2023/04/05 09:56:30;;;;;;;1.75;1.25;;;21.80;63.90;;;;;;5017372;28;20209;-56
2023/04/05 09:59:03;;;;;;;1.60;1.20;;;21.80;63.90;;;;;;5017900;28;20208;-58
2023/04/05 10:01:31;;;;;;;1.40;1.20;;;21.80;63.90;;;;;;5023023;28;20461;-53
2023/04/05 10:03:59;;;;;;;1.75;1.00;;;21.90;64.10;;;;;;5020023;28;20318;-56
2023/04/05 10:06:36;;;;;;;1.90;1.43;;;21.90;64.00;;;;;;5012729;28;20228;-63
2023/04/05 10:09:04;;;;;;;4.23;1.00;;;21.90;64.10;;;;;;5011238;28;20463;-62
2023/04/05 10:11:31;;;;;;;1.20;1.10;;;21.90;64.30;;;;;;5023027;28;21006;-63
2023/04/05 10:14:03;;;;;;;2.27;1.17;;;22.00;64.30;;;;;;5023011;28;20520;-62
2023/04/05 10:16:33;;;;;;;2.97;1.40;;;22.00;64.30;;;;;;5020888;28;20552;-55
2023/04/05 10:19:01;;;;;;;1.30;1.20;;;22.00;64.40;;;;;;5015347;28;20242;-61
2023/04/05 10:21:33;;;;;;;1.20;0.98;;;22.00;64.40;;;;;;5018208;28;20463;-52
2023/04/05 10:24:09;;;;;;;1.43;1.10;;;22.00;64.50;;;;;;5023634;28;20204;-51
2023/04/05 10:26:45;;;;;;;3.28;1.40;;;22.00;64.50;;;;;;5016540;28;20463;-57
2023/04/05 10:29:25;;;;;;;5.23;1.63;;;22.00;64.50;;;;;;5013514;28;20200;-61
2023/04/05 10:31:59;;;;;;;2.30;1.00;;;22.00;64.60;;;;;;5020564;28;20808;-59
2023/04/05 10:34:34;;;;;;;2.70;1.25;;;22.00;64.60;;;;;;5018210;28;20569;-59
2023/04/05 10:37:02;;;;;;;2.63;1.20;;;22.00;64.60;;;;;;5020127;28;20204;-55
2023/04/05 10:39:33;;;;;;;2.93;1.00;;;22.10;64.70;;;;;;5017407;28;20894;-58
2023/04/05 10:42:01;;;;;;;1.60;1.30;;;22.10;64.70;;;;;;5023968;28;20458;-54
2023/04/05 10:44:32;;;;;;;2.30;1.17;;;22.10;64.70;;;;;;5025517;28;20208;-61
2023/04/05 10:47:02;;;;;;;1.85;1.33;;;22.10;64.70;;;;;;5013949;28;20592;-56
2023/04/05 10:49:39;;;;;;;1.57;1.10;;;22.10;64.80;;;;;;5022306;28;20258;-59
2023/04/05 10:52:06;;;;;;;5.70;1.67;;;22.10;64.80;;;;;;5019544;28;20466;-55
2023/04/05 10:54:35;;;;;;;1.60;1.05;;;22.00;64.80;;;;;;5025329;28;20870;-55
2023/04/05 10:57:04;;;;;;;1.85;1.10;;;22.00;64.40;;;;;;5020885;28;20652;-52
2023/04/05 10:59:32;;;;;;;3.83;1.27;;;21.90;64.40;;;;;;5023237;28;20192;-54
2023/04/05 11:02:00;;;;;;;7.18;1.40;;;21.80;63.50;;;;;;5024447;28;20196;-56
2023/04/05 11:04:27;;;;;;;10.27;2.10;;;21.80;63.50;;;;;;5026095;28;20200;-59
2023/04/05 11:07:20;;;;;;;13.60;2.38;;;21.80;63.80;;;;;;5013094;28;20596;-56
2023/04/05 11:09:53;;;;;;;6.15;1.95;;;21.90;63.90;;;;;;4976450;28;20231;-61
2023/04/05 11:12:20;;;;;;;3.85;1.63;;;22.00;64.20;;;;;;5024794;28;20198;-57
2023/04/05 11:14:48;;;;;;;6.50;1.40;;;22.00;64.30;;;;;;5028250;28;20200;-57
2023/04/05 11:17:25;;;;;;;1.50;1.40;;;22.00;64.40;;;;;;5023456;28;20467;-59
2023/04/05 11:19:58;;;;;;;8.00;1.30;;;22.00;64.50;;;;;;5017537;28;20205;-60
2023/04/05 11:22:27;;;;;;;2.22;1.40;;;22.10;64.70;;;;;;5013016;28;20483;-56
2023/04/05 11:24:56;;;;;;;2.55;1.38;;;22.20;64.80;;;;;;5021803;28;20293;-55
2023/04/05 11:27:27;;;;;;;6.38;2.00;;;22.10;64.80;;;;;;5023005;28;20216;-58
2023/04/05 11:30:03;;;;;;;4.43;1.70;;;22.20;65.10;;;;;;5015095;28;21992;-64
2023/04/05 11:32:41;;;;;;;2.42;1.35;;;22.20;65.10;;;;;;5011215;28;20497;-65
2023/04/05 11:35:13;;;;;;;5.60;1.57;;;22.20;65.20;;;;;;5019890;28;20254;-64
2023/04/05 11:38:10;;;;;;;5.18;1.90;;;22.20;65.20;;;;;;5020769;28;20522;-67
2023/04/05 11:40:39;;;;;;;3.93;1.40;;;22.30;65.30;;;;;;5023203;28;20196;-62
2023/04/05 11:43:08;;;;;;;3.90;1.30;;;22.30;65.30;;;;;;5015861;28;20469;-54
2023/04/05 11:45:37;;;;;;;4.00;2.13;;;22.30;65.40;;;;;;5016003;28;20460;-61
2023/04/05 11:48:10;;;;;;;3.80;1.50;;;22.40;65.50;;;;;;5027242;28;20477;-63
2023/04/05 11:50:37;;;;;;;7.00;2.17;;;22.40;65.50;;;;;;5016688;28;20573;-60
2023/04/05 11:53:11;;;;;;;6.30;1.40;;;22.40;65.50;;;;;;5028906;28;20541;-60
2023/04/05 11:55:39;;;;;;;1.93;1.50;;;22.40;65.60;;;;;;5023046;28;20458;-61
2023/04/05 11:58:15;;;;;;;3.73;1.10;;;22.30;65.50;;;;;;5012761;28;20826;-61
2023/04/05 12:00:44;;;;;;;3.20;1.37;;;22.30;65.50;;;;;;5017016;28;20442;-56
2023/04/05 12:03:12;;;;;;;2.90;1.60;;;22.30;65.60;;;;;;5021396;28;20521;-61
2023/04/05 12:05:49;;;;;;;4.20;1.40;;;22.30;66.40;;;;;;5020141;28;20464;-61
2023/04/05 12:08:17;;;;;;;3.70;1.40;;;22.30;65.60;;;;;;5026431;28;20486;-52
2023/04/05 12:10:44;;;;;;;3.33;2.20;;;22.30;65.60;;;;;;5017732;28;20467;-58
2023/04/05 12:13:10;;;;;;;1.80;1.50;;;22.30;65.60;;;;;;5012378;28;20208;-58
2023/04/05 12:15:39;;;;;;;2.37;1.57;;;22.30;65.60;;;;;;5017991;28;21042;-54
2023/04/05 12:18:13;;;;;;;6.73;1.57;;;22.40;65.70;;;;;;5022034;28;20474;-60
2023/04/05 12:20:40;;;;;;;5.90;1.70;;;22.30;65.60;;;;;;5017145;28;20541;-59
2023/04/05 12:23:07;;;;;;;2.77;1.87;;;22.30;65.70;;;;;;5013866;28;20483;-50
2023/04/05 12:25:35;;;;;;;5.40;1.80;;;22.30;65.70;;;;;;5008852;28;20490;-54
2023/04/05 12:28:05;;;;;;;2.97;1.80;;;22.40;65.80;;;;;;5014932;28;20471;-57
2023/04/05 12:30:36;;;;;;;4.37;1.60;;;22.30;66.00;;;;;;5011844;28;20539;-57
2023/04/05 12:33:09;;;;;;;3.80;1.70;;;22.20;65.80;;;;;;5014430;28;20472;-55
2023/04/05 12:35:35;;;;;;;4.07;1.77;;;22.20;65.80;;;;;;5016147;28;20285;-60
2023/04/05 12:38:04;;;;;;;3.08;1.58;;;22.20;65.80;;;;;;5013393;28;20945;-56
2023/04/05 12:40:32;;;;;;;5.33;2.10;;;22.20;66.50;;;;;;5016955;28;20220;-51
2023/04/05 12:43:03;;;;;;;2.30;1.80;;;22.20;65.80;;;;;;5008287;28;20582;-56
2023/04/05 12:45:38;;;;;;;5.25;1.55;;;22.20;65.80;;;;;;5016465;28;20486;-57
2023/04/05 12:48:10;;;;;;;4.50;1.93;;;22.30;65.90;;;;;;5016482;28;21367;-56
2023/04/05 12:50:42;;;;;;;5.03;1.50;;;22.30;66.00;;;;;;5017090;28;21030;-55
2023/04/05 12:53:16;;;;;;;4.20;1.43;;;22.20;64.00;;;;;;5015933;28;20196;-55
2023/04/05 12:55:47;;;;;;;3.30;1.70;;;22.10;64.80;;;;;;5020883;28;20538;-55